JFA25K LEMH-LEBL
Flight info
| Callsign | JFA25K |
|---|---|
| Flight time | 0h 39m |
| Altitude | 18000 |
| Route | LUNIK Q255 OSTUR |
| Aircraft | PC12/L-SDFGRWY/S |
Departure
| Time | 2026-04-14 15:50 |
|---|---|
| Airport | Menorca Airport (LEMH) |
Arrival
| Time | 2026-04-14 16:29 |
|---|---|
| Airport | Josep Tarradellas Barcelona-El Prat Airport (LEBL) |
| Time | Latitude | Longitude | Altitude | Speed | Heading |
|---|---|---|---|---|---|
| 2026-04-14 15:47 | 39.85134 | 4.21779 | 280 ft | 0 kts | 276° |
| 2026-04-14 15:48 | 39.85139 | 4.21725 | 280 ft | 13 kts | 280° |
| 2026-04-14 15:49 | 39.85185 | 4.21645 | 283 ft | 13 kts | 7° |
| 2026-04-14 15:49 | 39.85384 | 4.21686 | 284 ft | 57 kts | 9° |
| 2026-04-14 15:49 | 39.85949 | 4.21797 | 374 ft | 100 kts | 4° |
| 2026-04-14 15:49 | 39.86741 | 4.21983 | 713 ft | 125 kts | 6° |
| 2026-04-14 15:50 | 39.87621 | 4.22182 | 1405 ft | 128 kts | 7° |
| 2026-04-14 15:50 | 39.88429 | 4.22366 | 2508 ft | 110 kts | 7° |
| 2026-04-14 15:50 | 39.89192 | 4.22540 | 3225 ft | 121 kts | 7° |
| 2026-04-14 15:50 | 39.90041 | 4.22743 | 3992 ft | 124 kts | 8° |
| 2026-04-14 15:51 | 39.90899 | 4.22944 | 4820 ft | 127 kts | 7° |
| 2026-04-14 15:51 | 39.91785 | 4.23153 | 5599 ft | 131 kts | 7° |
| 2026-04-14 15:51 | 39.92686 | 4.23366 | 6408 ft | 132 kts | 7° |
| 2026-04-14 15:51 | 39.93597 | 4.23580 | 7182 ft | 133 kts | 7° |
| 2026-04-14 15:52 | 39.94518 | 4.23796 | 7961 ft | 135 kts | 8° |
| 2026-04-14 15:52 | 39.95463 | 4.24020 | 8692 ft | 139 kts | 9° |
| 2026-04-14 15:52 | 39.96426 | 4.24247 | 9426 ft | 143 kts | 10° |
| 2026-04-14 15:52 | 39.97411 | 4.24482 | 10257 ft | 142 kts | 10° |
| 2026-04-14 15:53 | 39.98401 | 4.24682 | 10970 ft | 145 kts | 4° |
| 2026-04-14 15:53 | 39.99390 | 4.24502 | 11754 ft | 147 kts | 346° |
| 2026-04-14 15:53 | 40.00312 | 4.23838 | 12439 ft | 157 kts | 323° |
| 2026-04-14 15:53 | 40.01005 | 4.22710 | 13180 ft | 164 kts | 303° |
| 2026-04-14 15:54 | 40.01245 | 4.19637 | 14519 ft | 180 kts | 269° |
| 2026-04-14 15:54 | 40.01068 | 4.18007 | 15202 ft | 182 kts | 264° |
| 2026-04-14 15:54 | 40.00778 | 4.16382 | 15875 ft | 186 kts | 259° |
| 2026-04-14 15:55 | 40.00373 | 4.14766 | 16568 ft | 189 kts | 254° |
| 2026-04-14 15:55 | 39.99851 | 4.13170 | 17259 ft | 193 kts | 249° |
| 2026-04-14 15:55 | 39.99201 | 4.11593 | 17871 ft | 204 kts | 244° |
| 2026-04-14 15:55 | 39.98424 | 4.09920 | 18080 ft | 229 kts | 250° |
| 2026-04-14 15:56 | 39.98050 | 4.07820 | 18094 ft | 248 kts | 273° |
| 2026-04-14 15:56 | 39.98316 | 4.05558 | 18093 ft | 257 kts | 295° |
| 2026-04-14 15:56 | 39.99241 | 4.03574 | 18091 ft | 259 kts | 315° |
| 2026-04-14 15:56 | 40.00467 | 4.01826 | 18089 ft | 263 kts | 317° |
| 2026-04-14 15:57 | 40.01716 | 4.00072 | 18090 ft | 265 kts | 317° |
| 2026-04-14 15:57 | 40.02968 | 3.98291 | 18089 ft | 267 kts | 316° |
| 2026-04-14 15:57 | 40.04221 | 3.96496 | 18089 ft | 268 kts | 316° |
| 2026-04-14 15:57 | 40.05477 | 3.94701 | 18090 ft | 268 kts | 316° |
| 2026-04-14 15:58 | 40.06725 | 3.92921 | 18086 ft | 269 kts | 316° |
| 2026-04-14 15:58 | 40.07989 | 3.91116 | 18088 ft | 269 kts | 316° |
| 2026-04-14 15:58 | 40.09250 | 3.89312 | 18088 ft | 269 kts | 316° |
| 2026-04-14 15:58 | 40.10511 | 3.87508 | 18090 ft | 269 kts | 316° |
| 2026-04-14 15:59 | 40.11771 | 3.85704 | 18087 ft | 269 kts | 316° |
| 2026-04-14 15:59 | 40.13032 | 3.83899 | 18089 ft | 269 kts | 316° |
| 2026-04-14 15:59 | 40.14291 | 3.82093 | 18089 ft | 269 kts | 316° |
| 2026-04-14 15:59 | 40.15551 | 3.80287 | 18079 ft | 269 kts | 316° |
| 2026-04-14 16:00 | 40.16808 | 3.78483 | 18075 ft | 268 kts | 316° |
| 2026-04-14 16:00 | 40.18063 | 3.76681 | 18075 ft | 268 kts | 316° |
| 2026-04-14 16:00 | 40.19319 | 3.74877 | 18071 ft | 268 kts | 316° |
| 2026-04-14 16:00 | 40.20567 | 3.73083 | 18075 ft | 267 kts | 316° |
| 2026-04-14 16:01 | 40.21816 | 3.71286 | 18076 ft | 267 kts | 316° |
| 2026-04-14 16:01 | 40.23065 | 3.69489 | 18076 ft | 267 kts | 316° |
| 2026-04-14 16:01 | 40.24299 | 3.67711 | 18073 ft | 267 kts | 316° |
| 2026-04-14 16:01 | 40.25547 | 3.65914 | 18073 ft | 267 kts | 316° |
| 2026-04-14 16:02 | 40.26797 | 3.64111 | 18073 ft | 267 kts | 316° |
| 2026-04-14 16:02 | 40.28047 | 3.62309 | 18073 ft | 267 kts | 316° |
| 2026-04-14 16:02 | 40.29295 | 3.60506 | 18073 ft | 267 kts | 316° |
| 2026-04-14 16:02 | 40.30118 | 3.59318 | 18073 ft | 267 kts | 316° |
| 2026-04-14 16:03 | 40.31367 | 3.57514 | 18073 ft | 267 kts | 316° |
| 2026-04-14 16:03 | 40.32613 | 3.55713 | 18073 ft | 267 kts | 316° |
| 2026-04-14 16:03 | 40.33858 | 3.53911 | 18073 ft | 267 kts | 316° |
| 2026-04-14 16:03 | 40.35103 | 3.52109 | 18073 ft | 267 kts | 316° |
| 2026-04-14 16:04 | 40.36348 | 3.50306 | 18079 ft | 267 kts | 316° |
| 2026-04-14 16:04 | 40.37593 | 3.48503 | 18079 ft | 267 kts | 316° |
| 2026-04-14 16:04 | 40.38837 | 3.46698 | 18079 ft | 267 kts | 316° |
| 2026-04-14 16:04 | 40.40084 | 3.44889 | 18079 ft | 267 kts | 316° |
| 2026-04-14 16:05 | 40.41325 | 3.43087 | 18081 ft | 267 kts | 316° |
| 2026-04-14 16:05 | 40.42569 | 3.41281 | 18078 ft | 267 kts | 315° |
| 2026-04-14 16:05 | 40.43814 | 3.39472 | 18078 ft | 267 kts | 315° |
| 2026-04-14 16:05 | 40.45061 | 3.37659 | 18078 ft | 268 kts | 315° |
| 2026-04-14 16:06 | 40.46314 | 3.35844 | 18076 ft | 268 kts | 315° |
| 2026-04-14 16:06 | 40.47561 | 3.34034 | 18079 ft | 268 kts | 315° |
| 2026-04-14 16:06 | 40.48810 | 3.32219 | 18079 ft | 268 kts | 315° |
| 2026-04-14 16:06 | 40.50059 | 3.30403 | 18079 ft | 268 kts | 315° |
| 2026-04-14 16:07 | 40.51311 | 3.28583 | 18082 ft | 268 kts | 315° |
| 2026-04-14 16:07 | 40.52559 | 3.26765 | 18082 ft | 268 kts | 315° |
| 2026-04-14 16:07 | 40.53794 | 3.24968 | 18082 ft | 268 kts | 315° |
| 2026-04-14 16:07 | 40.55040 | 3.23153 | 18082 ft | 268 kts | 315° |
| 2026-04-14 16:08 | 40.56287 | 3.21333 | 18079 ft | 268 kts | 315° |
| 2026-04-14 16:08 | 40.57535 | 3.19513 | 18079 ft | 268 kts | 315° |
| 2026-04-14 16:08 | 40.58783 | 3.17692 | 18079 ft | 268 kts | 315° |
| 2026-04-14 16:08 | 40.60034 | 3.15864 | 18079 ft | 268 kts | 315° |
| 2026-04-14 16:09 | 40.61278 | 3.14046 | 18079 ft | 268 kts | 315° |
| 2026-04-14 16:09 | 40.62528 | 3.12220 | 18080 ft | 268 kts | 315° |
| 2026-04-14 16:09 | 40.63782 | 3.10388 | 17971 ft | 271 kts | 315° |
| 2026-04-14 16:09 | 40.65054 | 3.08530 | 17755 ft | 275 kts | 315° |
| 2026-04-14 16:10 | 40.66336 | 3.06653 | 17548 ft | 276 kts | 315° |
| 2026-04-14 16:10 | 40.67606 | 3.04792 | 17329 ft | 276 kts | 315° |
| 2026-04-14 16:10 | 40.68891 | 3.02908 | 17120 ft | 275 kts | 315° |
| 2026-04-14 16:10 | 40.70180 | 3.01020 | 16756 ft | 279 kts | 315° |
| 2026-04-14 16:11 | 40.71483 | 2.99109 | 16374 ft | 280 kts | 315° |
| 2026-04-14 16:11 | 40.72782 | 2.97201 | 15997 ft | 279 kts | 315° |
| 2026-04-14 16:11 | 40.74078 | 2.95296 | 15624 ft | 278 kts | 315° |
| 2026-04-14 16:11 | 40.75368 | 2.93399 | 15251 ft | 277 kts | 315° |
| 2026-04-14 16:12 | 40.76655 | 2.91507 | 14890 ft | 276 kts | 315° |
| 2026-04-14 16:12 | 40.78057 | 2.89825 | 14522 ft | 271 kts | 327° |
| 2026-04-14 16:12 | 40.79667 | 2.88636 | 14167 ft | 267 kts | 339° |
| 2026-04-14 16:12 | 40.81405 | 2.87795 | 13809 ft | 265 kts | 342° |
| 2026-04-14 16:13 | 40.83138 | 2.86956 | 13412 ft | 265 kts | 341° |
| 2026-04-14 16:13 | 40.84864 | 2.86112 | 13013 ft | 264 kts | 341° |
| 2026-04-14 16:13 | 40.86590 | 2.85274 | 12624 ft | 263 kts | 341° |
| 2026-04-14 16:13 | 40.88307 | 2.84440 | 12237 ft | 263 kts | 341° |
| 2026-04-14 16:14 | 40.90025 | 2.83607 | 11855 ft | 263 kts | 341° |
| 2026-04-14 16:14 | 40.91737 | 2.82774 | 11521 ft | 261 kts | 341° |
| 2026-04-14 16:14 | 40.93427 | 2.81951 | 11316 ft | 258 kts | 341° |
| 2026-04-14 16:14 | 40.95116 | 2.81129 | 11119 ft | 259 kts | 341° |
| 2026-04-14 16:15 | 40.96813 | 2.80303 | 10924 ft | 260 kts | 341° |
| 2026-04-14 16:15 | 40.98513 | 2.79475 | 10726 ft | 260 kts | 341° |
| 2026-04-14 16:15 | 41.00214 | 2.78645 | 10537 ft | 261 kts | 341° |
| 2026-04-14 16:15 | 41.01915 | 2.77815 | 10345 ft | 261 kts | 341° |
| 2026-04-14 16:16 | 41.03620 | 2.76983 | 10155 ft | 260 kts | 341° |
| 2026-04-14 16:16 | 41.05298 | 2.76163 | 10065 ft | 256 kts | 341° |
| 2026-04-14 16:16 | 41.06964 | 2.75350 | 9996 ft | 254 kts | 341° |
| 2026-04-14 16:16 | 41.08631 | 2.74534 | 9954 ft | 255 kts | 341° |
| 2026-04-14 16:17 | 41.10282 | 2.73726 | 9936 ft | 252 kts | 341° |
| 2026-04-14 16:17 | 41.11924 | 2.72924 | 9750 ft | 254 kts | 341° |
| 2026-04-14 16:17 | 41.13566 | 2.72118 | 9657 ft | 249 kts | 341° |
| 2026-04-14 16:17 | 41.15201 | 2.71317 | 9497 ft | 254 kts | 341° |
| 2026-04-14 16:18 | 41.16862 | 2.70504 | 9133 ft | 251 kts | 341° |
| 2026-04-14 16:18 | 41.18474 | 2.69711 | 8841 ft | 247 kts | 341° |
| 2026-04-14 16:18 | 41.20085 | 2.68922 | 8457 ft | 245 kts | 341° |
| 2026-04-14 16:18 | 41.21653 | 2.68149 | 8076 ft | 237 kts | 341° |
| 2026-04-14 16:19 | 41.23185 | 2.67375 | 7863 ft | 236 kts | 341° |
| 2026-04-14 16:19 | 41.24743 | 2.66584 | 7531 ft | 244 kts | 341° |
| 2026-04-14 16:19 | 41.26237 | 2.65602 | 7169 ft | 237 kts | 322° |
| 2026-04-14 16:19 | 41.27144 | 2.63799 | 6813 ft | 235 kts | 298° |
| 2026-04-14 16:20 | 41.27774 | 2.61805 | 6475 ft | 233 kts | 296° |
| 2026-04-14 16:20 | 41.28423 | 2.59845 | 6113 ft | 230 kts | 298° |
| 2026-04-14 16:20 | 41.29113 | 2.57932 | 5750 ft | 229 kts | 299° |
| 2026-04-14 16:20 | 41.29798 | 2.56031 | 5393 ft | 227 kts | 298° |
| 2026-04-14 16:21 | 41.30472 | 2.54136 | 5046 ft | 226 kts | 298° |
| 2026-04-14 16:21 | 41.31130 | 2.52276 | 4727 ft | 223 kts | 297° |
| 2026-04-14 16:21 | 41.31788 | 2.50419 | 4520 ft | 222 kts | 297° |
| 2026-04-14 16:21 | 41.32448 | 2.48558 | 4311 ft | 222 kts | 297° |
| 2026-04-14 16:22 | 41.33104 | 2.46707 | 4112 ft | 220 kts | 297° |
| 2026-04-14 16:22 | 41.33755 | 2.44866 | 3900 ft | 219 kts | 297° |
| 2026-04-14 16:22 | 41.34405 | 2.43032 | 3703 ft | 219 kts | 296° |
| 2026-04-14 16:22 | 41.35050 | 2.41207 | 3576 ft | 217 kts | 296° |
| 2026-04-14 16:23 | 41.35694 | 2.39383 | 3473 ft | 216 kts | 295° |
| 2026-04-14 16:23 | 41.36314 | 2.37627 | 3364 ft | 203 kts | 295° |
| 2026-04-14 16:23 | 41.36913 | 2.35932 | 3256 ft | 206 kts | 295° |
| 2026-04-14 16:23 | 41.37520 | 2.34177 | 3129 ft | 209 kts | 291° |
| 2026-04-14 16:24 | 41.37749 | 2.32266 | 2861 ft | 212 kts | 268° |
| 2026-04-14 16:24 | 41.37419 | 2.30393 | 2603 ft | 206 kts | 248° |
| 2026-04-14 16:24 | 41.36835 | 2.28658 | 2308 ft | 204 kts | 244° |
| 2026-04-14 16:24 | 41.36265 | 2.26990 | 2294 ft | 191 kts | 243° |
| 2026-04-14 16:25 | 41.35747 | 2.25476 | 2281 ft | 168 kts | 243° |
| 2026-04-14 16:25 | 41.35279 | 2.24116 | 2258 ft | 157 kts | 245° |
| 2026-04-14 16:25 | 41.34816 | 2.22761 | 2077 ft | 160 kts | 244° |
| 2026-04-14 16:25 | 41.34362 | 2.21431 | 1863 ft | 156 kts | 243° |
| 2026-04-14 16:26 | 41.33918 | 2.20131 | 1647 ft | 148 kts | 242° |
| 2026-04-14 16:26 | 41.33493 | 2.18912 | 1455 ft | 148 kts | 240° |
| 2026-04-14 16:26 | 41.33062 | 2.17662 | 1268 ft | 139 kts | 241° |
| 2026-04-14 16:26 | 41.32694 | 2.16572 | 1077 ft | 128 kts | 244° |
| 2026-04-14 16:27 | 41.32322 | 2.15483 | 905 ft | 124 kts | 242° |
| 2026-04-14 16:27 | 41.31996 | 2.14529 | 745 ft | 103 kts | 243° |
| 2026-04-14 16:27 | 41.31714 | 2.13700 | 615 ft | 94 kts | 241° |
| 2026-04-14 16:27 | 41.31448 | 2.12914 | 489 ft | 93 kts | 240° |
| 2026-04-14 16:28 | 41.31184 | 2.12146 | 336 ft | 91 kts | 240° |
| 2026-04-14 16:28 | 41.30915 | 2.11400 | 213 ft | 88 kts | 241° |
| 2026-04-14 16:28 | 41.30667 | 2.10663 | 116 ft | 89 kts | 240° |
| 2026-04-14 16:28 | 41.30425 | 2.09933 | 19 ft | 82 kts | 241° |
| 2026-04-14 16:29 | 41.30205 | 2.09315 | 13 ft | 67 kts | 243° |
| 2026-04-14 16:29 | 41.30064 | 2.08846 | 16 ft | 35 kts | 257° |
| 2026-04-14 16:29 | 41.30054 | 2.08657 | 18 ft | 14 kts | 269° |
| 2026-04-14 16:29 | 41.30062 | 2.08567 | 17 ft | 3 kts | 277° |
| 2026-04-14 16:30 | 41.30073 | 2.08523 | 15 ft | 10 kts | 299° |
| 2026-04-14 16:30 | 41.30107 | 2.08502 | 15 ft | 0 kts | 335° |
| 2026-04-14 16:31 | 41.30151 | 2.08489 | 16 ft | 9 kts | 10° |
| 2026-04-14 16:31 | 41.30191 | 2.08494 | 16 ft | 3 kts | 350° |
| 2026-04-14 16:31 | 41.30255 | 2.08507 | 14 ft | 15 kts | 65° |
| 2026-04-14 16:31 | 41.30294 | 2.08621 | 14 ft | 9 kts | 69° |
| 2026-04-14 16:32 | 41.30315 | 2.08685 | 14 ft | 14 kts | 66° |
| 2026-04-14 16:32 | 41.30360 | 2.08820 | 14 ft | 11 kts | 68° |
| 2026-04-14 16:32 | 41.30427 | 2.08865 | 15 ft | 18 kts | 323° |
| 2026-04-14 16:32 | 41.30447 | 2.08780 | 16 ft | 4 kts | 263° |
| 2026-04-14 16:33 | 41.30440 | 2.08705 | 16 ft | 7 kts | 265° |
| 2026-04-14 16:33 | 41.30432 | 2.08674 | 16 ft | 0 kts | 245° |